Kaiyo — JGBF — position and weather

sailwx.info

Track history (hours):
 
Tides and Currents Weather Stations Pressure Air Temp Water Temp Dewpoint Dewpoint Depression Visibility Wind Speed Wind Dir Waves Ship Positions

Oceanographic research ship Kaiyo (Japan)

Detailed information on ship capabilities available from University of Delaware's Ocean Information Center.

Last reported at 2017-May-23 05:33 UTC. Time now 2017-May-27 17:38 UTC.
Position N 35°00' E 139°33'.

Length 58 m; draft 3 m.

Type: Ship. MMSI: 431100049.

Date/timePositionNaut miles runAvg speedWind from/ knotsBaromVisibWave heightAir tempDewpointWater temp
2017-May-23 05:33N 35°00' E 139°33'111.4
2017-May-23 05:30N 35°01' E 139°33'611.4
2017-May-23 04:57N 35°05' E 139°39'512.0
2017-May-23 04:30N 35°09' E 139°43'511.1
2017-May-23 04:01N 35°14' E 139°46'510.2
2017-May-23 03:30N 35°18' E 139°44'510.3
2017-May-23 03:01N 35°23' E 139°42'611.4
2017-May-23 02:30N 35°27' E 139°48'510.4
2017-May-23 02:01N 35°32' E 139°51'611.0
2017-May-23 01:30N 35°36' E 139°47'2 3.7
2017-May-23 01:00N 35°38' E 139°47'0 0.0
2017-May-23 00:30N 35°38' E 139°47'  
2017-May-15 11:48N 35°38' E 139°47'0 0.0
2017-May-15 11:30N 35°38' E 139°47'0 0.0
2017-May-15 11:00N 35°38' E 139°47'  
Track history (hours):
 
Tides and Currents Weather Stations Pressure Air Temp Water Temp Dewpoint Dewpoint Depression Visibility Wind Speed Wind Dir Waves Ship Positions

Oceanographic research ship Kaiyo (Japan)

Detailed information on ship capabilities available from University of Delaware's Ocean Information Center.

Last reported at 2017-May-23 05:33 UTC. Time now 2017-May-27 17:38 UTC.
Position N 35°00' E 139°33'.

Length 58 m; draft 3 m.

Type: Ship. MMSI: 431100049.

Date/timePositionNaut miles runAvg speedWind from/ knotsBaromVisibWave heightAir tempDewpointWater temp
2017-May-23 05:33N 35°00' E 139°33'111.4
2017-May-23 05:30N 35°01' E 139°33'611.4
2017-May-23 04:57N 35°05' E 139°39'512.0
2017-May-23 04:30N 35°09' E 139°43'511.1
2017-May-23 04:01N 35°14' E 139°46'510.2
2017-May-23 03:30N 35°18' E 139°44'510.3
2017-May-23 03:01N 35°23' E 139°42'611.4
2017-May-23 02:30N 35°27' E 139°48'510.4
2017-May-23 02:01N 35°32' E 139°51'611.0
2017-May-23 01:30N 35°36' E 139°47'2 3.7
2017-May-23 01:00N 35°38' E 139°47'0 0.0
2017-May-23 00:30N 35°38' E 139°47'  
2017-May-15 11:48N 35°38' E 139°47'0 0.0
2017-May-15 11:30N 35°38' E 139°47'0 0.0
2017-May-15 11:00N 35°38' E 139°47'  

Dump ship's entire track history